Time;durP1;ratioP1;P1;durP2;ratioP2;P2;SDS_P1;SDS_P2;PMS_P1;PMS_P2;Temp;Humidity;BMP_temperature;BMP_pressure;BME280_temperature;BME280_humidity;BME280_pressure;Samples;Min_cycle;Max_cycle;Signal;HPM_P1;HPM_P2
2021/01/04 16:05:48;;;;;;;0.85;0.68;;;16.80;99.90;;;;;;5133144;27;20507;-48
2021/01/04 16:08:14;;;;;;;1.13;1.00;;;18.10;99.90;;;;;;5131875;28;20666;-41
2021/01/04 16:10:39;;;;;;;0.50;0.38;;;18.50;99.90;;;;;;5132833;27;20169;-44
2021/01/04 16:13:06;;;;;;;6.53;0.30;;;18.80;99.90;;;;;;5132138;28;20190;-39
2021/01/04 16:16:26;;;;;;;1.88;0.70;;;19.50;99.90;;;;;;5073741;27;20633;-82
2021/01/04 16:18:52;;;;;;;1.83;1.33;;;18.00;99.90;;;;;;5070713;28;20179;-82
2021/01/04 16:21:26;;;;;;;0.93;0.90;;;15.80;99.90;;;;;;5067659;28;20610;-83
2021/01/04 16:23:51;;;;;;;0.60;0.50;;;13.60;99.90;;;;;;5054866;28;20195;-84
2021/01/04 16:26:17;;;;;;;0.40;0.40;;;12.00;99.90;;;;;;5073891;28;20189;-87
2021/01/04 16:28:43;;;;;;;2.00;1.20;;;10.60;99.90;;;;;;5064142;28;20191;-81
2021/01/04 16:31:08;;;;;;;0.50;0.50;;;9.60;99.90;;;;;;5059541;28;20198;-80
2021/01/04 16:33:34;;;;;;;1.27;0.70;;;8.70;99.90;;;;;;5061756;28;20269;-82
2021/01/04 16:35:59;;;;;;;0.83;0.53;;;8.10;99.90;;;;;;5056663;28;20297;-80
2021/01/04 16:38:25;;;;;;;0.57;0.57;;;7.70;99.90;;;;;;5056997;28;20184;-79
2021/01/04 16:40:50;;;;;;;1.77;1.10;;;7.30;99.90;;;;;;5064093;28;20219;-81
2021/01/04 16:43:16;;;;;;;0.60;0.60;;;7.00;99.90;;;;;;5068657;28;20188;-80
2021/01/04 16:45:42;;;;;;;0.60;0.60;;;6.80;99.90;;;;;;5057500;28;20203;-83
2021/01/04 16:48:08;;;;;;;0.40;0.40;;;6.40;99.90;;;;;;5058228;28;20205;-84
2021/01/04 16:50:34;;;;;;;0.77;0.77;;;6.40;99.90;;;;;;5057860;28;20238;-81
2021/01/04 16:52:59;;;;;;;0.00;0.00;;;6.30;99.90;;;;;;5060324;28;20667;-78
2021/01/04 16:55:25;;;;;;;0.50;0.50;;;6.10;99.90;;;;;;5058986;28;20202;-79
2021/01/04 16:57:50;;;;;;;0.47;0.47;;;6.10;99.90;;;;;;5068884;22;20218;-79
2021/01/04 17:00:17;;;;;;;0.17;0.17;;;6.00;99.90;;;;;;5076690;28;20186;-80
2021/01/04 17:02:44;;;;;;;0.13;0.13;;;6.00;99.90;;;;;;5061847;28;20269;-80
2021/01/04 17:05:31;;;;;;;1.67;1.30;;;6.00;99.90;;;;;;5042552;28;20216;-81
2021/01/04 17:07:57;;;;;;;1.23;1.23;;;5.90;99.90;;;;;;5039553;28;20191;-81
2021/01/04 17:10:24;;;;;;;0.40;0.40;;;6.00;99.90;;;;;;5021509;28;20189;-80
2021/01/04 17:12:51;;;;;;;0.10;0.10;;;5.90;99.90;;;;;;5037555;28;20208;-80
2021/01/04 17:15:47;;;;;;;0.67;0.30;;;5.90;99.90;;;;;;5041990;28;20207;-81
2021/01/04 17:18:14;;;;;;;0.20;0.20;;;5.80;99.90;;;;;;5049339;28;20202;-81
2021/01/04 17:20:40;;;;;;;0.20;0.20;;;5.80;99.90;;;;;;5037797;28;20636;-80
2021/01/04 17:23:06;;;;;;;0.60;0.60;;;5.70;99.90;;;;;;5055439;28;20176;-80
2021/01/04 17:25:34;;;;;;;1.10;1.00;;;5.70;99.90;;;;;;5055777;28;20174;-80
2021/01/04 17:28:01;;;;;;;0.10;0.10;;;5.70;99.90;;;;;;5033294;28;20188;-81
2021/01/04 17:30:26;;;;;;;0.60;0.60;;;5.60;99.90;;;;;;5023483;28;20169;-81
2021/01/04 17:32:52;;;;;;;0.33;0.33;;;5.60;99.90;;;;;;5021610;28;20252;-80
2021/01/04 17:35:18;;;;;;;0.20;0.07;;;5.70;99.90;;;;;;5023812;28;20204;-80
2021/01/04 17:37:43;;;;;;;0.20;0.20;;;5.70;99.90;;;;;;5039528;28;20178;-80
2021/01/04 17:40:11;;;;;;;0.10;0.10;;;5.70;99.90;;;;;;5039935;28;20181;-80
2021/01/04 17:42:47;;;;;;;1.20;0.77;;;5.70;99.90;;;;;;5039403;28;20320;-81
2021/01/04 17:45:16;;;;;;;0.30;0.30;;;5.70;99.90;;;;;;5051734;28;20194;-80
2021/01/04 17:47:43;;;;;;;0.73;0.73;;;5.60;99.90;;;;;;5051371;28;20182;-80
2021/01/04 17:50:10;;;;;;;0.20;0.20;;;5.70;99.90;;;;;;5049777;28;20167;-80
2021/01/04 17:52:35;;;;;;;0.77;0.57;;;5.60;99.90;;;;;;5034639;28;20177;-80
2021/01/04 17:55:01;;;;;;;0.20;0.20;;;5.70;99.90;;;;;;5047708;28;20206;-80
2021/01/04 17:57:26;;;;;;;0.30;0.30;;;5.60;99.90;;;;;;5042772;28;20185;-81
2021/01/04 17:59:52;;;;;;;0.10;0.10;;;5.60;99.90;;;;;;5044095;28;20161;-80
2021/01/04 18:02:17;;;;;;;0.33;0.33;;;5.60;99.90;;;;;;5021956;28;20200;-83
2021/01/04 18:04:43;;;;;;;0.30;0.30;;;5.60;99.90;;;;;;5017810;28;20255;-81
2021/01/04 18:07:08;;;;;;;0.73;0.73;;;5.60;99.90;;;;;;5017162;28;20325;-81
2021/01/04 18:09:34;;;;;;;1.37;1.27;;;5.60;99.90;;;;;;5022279;28;20230;-79
2021/01/04 18:11:59;;;;;;;0.70;0.30;;;5.60;99.90;;;;;;5037283;28;20191;-80
2021/01/04 18:14:25;;;;;;;0.60;0.60;;;5.60;99.90;;;;;;5015454;28;20210;-80
2021/01/04 18:16:51;;;;;;;0.70;0.70;;;5.60;99.90;;;;;;5018331;28;20186;-80
2021/01/04 18:19:18;;;;;;;0.47;0.37;;;5.60;99.90;;;;;;5035860;28;20641;-79
2021/01/04 18:21:45;;;;;;;0.43;0.43;;;5.70;99.90;;;;;;5025280;28;20179;-79
2021/01/04 18:24:11;;;;;;;0.50;0.50;;;5.70;99.90;;;;;;5003753;28;20392;-79
2021/01/04 18:26:36;;;;;;;1.20;1.10;;;5.60;99.90;;;;;;5034103;28;20208;-80
2021/01/04 18:29:07;;;;;;;0.33;0.33;;;5.50;99.90;;;;;;5032206;28;20207;-78
2021/01/04 18:31:53;;;;;;;0.43;0.43;;;5.50;99.90;;;;;;5038834;28;20547;-79
2021/01/04 18:34:22;;;;;;;1.23;1.13;;;5.40;99.90;;;;;;5039733;28;20190;-79
2021/01/04 18:36:50;;;;;;;0.70;0.70;;;5.30;99.90;;;;;;5036734;28;20208;-79
2021/01/04 18:39:16;;;;;;;0.73;0.60;;;5.30;99.90;;;;;;5036058;28;20180;-80
2021/01/04 18:41:42;;;;;;;0.10;0.10;;;5.30;99.90;;;;;;5037985;28;20166;-79
2021/01/04 18:44:08;;;;;;;0.30;0.30;;;5.30;99.90;;;;;;5031455;28;20201;-79
2021/01/04 18:46:34;;;;;;;0.40;0.40;;;5.40;99.90;;;;;;5036642;28;20723;-79
2021/01/04 18:49:00;;;;;;;0.57;0.10;;;5.30;99.90;;;;;;5036344;28;20176;-80
2021/01/04 18:51:28;;;;;;;1.63;0.67;;;5.40;99.90;;;;;;5036356;28;20268;-79
2021/01/04 18:53:54;;;;;;;0.30;0.30;;;5.30;99.90;;;;;;5037859;28;20180;-79
2021/01/04 18:56:34;;;;;;;1.03;0.67;;;5.30;99.90;;;;;;5036228;28;20200;-79
2021/01/04 18:58:59;;;;;;;1.10;1.10;;;5.20;99.90;;;;;;5034078;28;20202;-80
2021/01/04 19:01:27;;;;;;;2.40;0.80;;;5.20;99.90;;;;;;5037609;28;20169;-80
2021/01/04 19:03:53;;;;;;;0.53;0.43;;;5.20;99.90;;;;;;5036832;28;20244;-80
2021/01/04 19:06:33;;;;;;;0.50;0.50;;;5.20;99.90;;;;;;5036254;28;20172;-78
2021/01/04 19:09:00;;;;;;;0.30;0.30;;;5.20;99.90;;;;;;5027313;28;20185;-80
2021/01/04 19:11:27;;;;;;;0.57;0.57;;;5.20;99.90;;;;;;5027559;28;20552;-79
2021/01/04 19:13:54;;;;;;;0.63;0.63;;;5.20;99.90;;;;;;5019605;28;20258;-82
2021/01/04 19:16:20;;;;;;;0.50;0.50;;;5.30;99.90;;;;;;5016782;28;20561;-80
2021/01/04 19:18:46;;;;;;;0.70;0.70;;;5.30;99.90;;;;;;5017852;28;20176;-80
2021/01/04 19:21:15;;;;;;;0.60;0.60;;;5.30;99.90;;;;;;5018043;28;20178;-80
2021/01/04 19:23:42;;;;;;;0.27;0.27;;;5.30;99.90;;;;;;5014374;28;20282;-78
2021/01/04 19:26:08;;;;;;;1.27;1.17;;;5.40;99.90;;;;;;5013543;28;20175;-76
2021/01/04 19:28:33;;;;;;;0.47;0.47;;;5.40;99.90;;;;;;5015430;28;20195;-79
2021/01/04 19:30:59;;;;;;;0.60;0.60;;;5.40;99.90;;;;;;5017667;28;20175;-79
2021/01/04 19:33:24;;;;;;;1.03;1.00;;;5.50;99.90;;;;;;5025133;28;20200;-77
2021/01/04 19:35:50;;;;;;;0.53;0.53;;;5.50;99.90;;;;;;5025792;28;20200;-78
2021/01/04 19:38:16;;;;;;;0.53;0.50;;;5.60;99.90;;;;;;5025915;28;20628;-78
2021/01/04 19:40:41;;;;;;;0.57;0.43;;;5.70;99.90;;;;;;5029436;28;20198;-76
2021/01/04 19:43:07;;;;;;;0.47;0.47;;;5.60;99.90;;;;;;5015772;28;20181;-77
2021/01/04 19:45:33;;;;;;;1.33;0.77;;;5.60;99.90;;;;;;5033191;28;20275;-77
2021/01/04 19:47:58;;;;;;;2.30;1.33;;;5.60;99.90;;;;;;5033137;28;20211;-77
2021/01/04 19:50:24;;;;;;;0.73;0.73;;;5.60;99.90;;;;;;5026946;28;20188;-78
2021/01/04 19:52:51;;;;;;;1.50;1.40;;;5.60;99.90;;;;;;5026899;28;20195;-78
2021/01/04 19:55:17;;;;;;;0.73;0.73;;;5.60;99.90;;;;;;5032989;28;20216;-78
2021/01/04 19:57:42;;;;;;;2.03;1.03;;;5.70;99.90;;;;;;5032331;28;20242;-77
2021/01/04 20:00:11;;;;;;;1.37;1.27;;;5.60;99.90;;;;;;5023350;28;20180;-77
2021/01/04 20:02:37;;;;;;;0.80;0.80;;;5.60;99.90;;;;;;5020536;28;20260;-77
2021/01/04 20:05:04;;;;;;;0.97;0.70;;;5.70;99.90;;;;;;5021215;28;20680;-77
2021/01/04 20:07:30;;;;;;;1.27;0.60;;;5.60;99.90;;;;;;5013389;28;20254;-77
2021/01/04 20:09:55;;;;;;;0.50;0.50;;;5.60;99.90;;;;;;5014619;28;20204;-77
2021/01/04 20:12:21;;;;;;;0.70;0.70;;;5.60;99.90;;;;;;5024652;28;20187;-79
2021/01/04 20:14:46;;;;;;;0.90;0.87;;;5.70;99.90;;;;;;5016618;28;20206;-78
2021/01/04 20:17:12;;;;;;;1.00;0.90;;;5.70;99.90;;;;;;5034551;28;20639;-78
2021/01/04 20:19:37;;;;;;;0.97;0.63;;;5.60;99.90;;;;;;5034950;28;20171;-78
2021/01/04 20:22:03;;;;;;;0.97;0.97;;;5.50;99.90;;;;;;5033045;28;20169;-78
2021/01/04 20:24:29;;;;;;;0.93;0.93;;;5.60;99.90;;;;;;5032810;28;20286;-77
2021/01/04 20:26:59;;;;;;;0.40;0.40;;;5.60;99.90;;;;;;5033313;28;20226;-78
2021/01/04 20:29:27;;;;;;;0.57;0.57;;;5.50;99.90;;;;;;5033384;28;20171;-77
2021/01/04 20:31:56;;;;;;;0.50;0.50;;;5.50;99.90;;;;;;5026889;28;20178;-77
2021/01/04 20:34:24;;;;;;;1.00;0.93;;;5.50;99.90;;;;;;5033322;28;20194;-78
2021/01/04 20:36:55;;;;;;;2.23;1.87;;;5.40;99.90;;;;;;5018525;28;20169;-78
2021/01/04 20:39:22;;;;;;;1.33;0.93;;;5.50;99.90;;;;;;5014837;28;20292;-77
2021/01/04 20:41:58;;;;;;;1.57;1.00;;;5.50;99.90;;;;;;5013594;28;20172;-77
2021/01/04 20:44:25;;;;;;;0.67;0.63;;;5.50;99.90;;;;;;5033553;28;20218;-78
2021/01/04 20:46:51;;;;;;;1.57;1.47;;;5.50;99.90;;;;;;5033442;28;20660;-77
2021/01/04 20:49:17;;;;;;;1.73;1.63;;;5.50;99.90;;;;;;5034746;28;20172;-78
2021/01/04 20:51:43;;;;;;;0.23;0.23;;;5.60;99.90;;;;;;5034706;28;20168;-77
2021/01/04 20:54:09;;;;;;;1.03;0.83;;;5.60;99.90;;;;;;5034688;28;20219;-78
2021/01/04 20:56:36;;;;;;;1.40;1.30;;;5.60;99.90;;;;;;5022074;28;20182;-78
2021/01/04 20:59:02;;;;;;;1.00;1.00;;;5.50;99.90;;;;;;5017114;28;20223;-78
2021/01/04 21:01:28;;;;;;;1.00;0.67;;;5.50;99.90;;;;;;5033055;28;20174;-78
2021/01/04 21:03:54;;;;;;;0.63;0.63;;;5.50;99.90;;;;;;5035307;28;20199;-77
2021/01/04 21:06:20;;;;;;;1.23;1.13;;;5.50;99.90;;;;;;5017473;28;20250;-77
2021/01/04 21:08:45;;;;;;;0.80;0.53;;;5.50;99.90;;;;;;5017509;28;20196;-77
2021/01/04 21:11:11;;;;;;;1.00;1.00;;;5.40;99.90;;;;;;5016428;28;20170;-77
2021/01/04 21:13:37;;;;;;;0.73;0.73;;;5.40;99.90;;;;;;5005152;28;20289;-77
2021/01/04 21:16:05;;;;;;;0.67;0.67;;;5.50;99.90;;;;;;5014753;28;20196;-77
2021/01/04 21:18:30;;;;;;;0.87;0.70;;;5.40;99.90;;;;;;5015954;28;20177;-76
2021/01/04 21:20:56;;;;;;;1.07;0.97;;;5.40;99.90;;;;;;5031533;28;20548;-78
2021/01/04 21:23:22;;;;;;;0.47;0.47;;;5.50;99.90;;;;;;5037801;28;20200;-81
2021/01/04 21:25:48;;;;;;;1.07;0.97;;;5.40;99.90;;;;;;5044426;28;20187;-81
2021/01/04 21:28:14;;;;;;;0.30;0.30;;;5.40;99.90;;;;;;5030996;28;20191;-80
2021/01/04 21:30:39;;;;;;;0.43;0.43;;;5.40;99.90;;;;;;5020892;28;20544;-80
2021/01/04 21:33:05;;;;;;;0.57;0.53;;;5.40;99.90;;;;;;5019194;28;20544;-80
2021/01/04 21:35:30;;;;;;;1.50;1.40;;;5.60;99.90;;;;;;5017369;28;20208;-80
2021/01/04 21:37:56;;;;;;;0.30;0.30;;;5.50;99.90;;;;;;5030639;28;20664;-80
2021/01/04 21:40:22;;;;;;;0.40;0.40;;;5.50;99.90;;;;;;5035003;28;20203;-80
2021/01/04 21:42:48;;;;;;;0.40;0.40;;;5.50;99.90;;;;;;5023919;28;20182;-80
2021/01/04 21:45:14;;;;;;;0.50;0.50;;;5.50;99.90;;;;;;5036994;28;20279;-80
2021/01/04 21:47:41;;;;;;;0.20;0.20;;;5.50;99.90;;;;;;5037072;28;20186;-80
2021/01/04 21:50:13;;;;;;;2.07;1.17;;;5.50;99.90;;;;;;5038592;28;20528;-80
2021/01/04 21:52:40;;;;;;;1.47;1.00;;;5.50;99.90;;;;;;5036904;28;20540;-80
2021/01/04 21:55:06;;;;;;;0.60;0.60;;;5.50;99.90;;;;;;5036464;28;20239;-80
2021/01/04 21:57:32;;;;;;;0.60;0.60;;;5.40;99.90;;;;;;5031684;28;20186;-80
2021/01/04 21:59:58;;;;;;;0.97;0.97;;;5.50;99.90;;;;;;5036841;28;20179;-80
2021/01/04 22:02:24;;;;;;;0.83;0.83;;;5.50;99.90;;;;;;5029486;28;20183;-80
2021/01/04 22:04:50;;;;;;;0.30;0.30;;;5.50;99.90;;;;;;5037962;28;20537;-81
2021/01/04 22:07:16;;;;;;;1.77;0.97;;;5.50;99.90;;;;;;5037053;28;20175;-80
2021/01/04 22:09:42;;;;;;;1.60;1.23;;;5.50;99.90;;;;;;5037232;28;20232;-80
2021/01/04 22:12:07;;;;;;;0.70;0.70;;;5.60;99.90;;;;;;5038860;28;20168;-80
2021/01/04 22:14:33;;;;;;;0.70;0.70;;;5.60;99.90;;;;;;5038642;28;20199;-80
2021/01/04 22:16:59;;;;;;;1.33;1.33;;;5.70;99.90;;;;;;5038840;28;20170;-82
2021/01/04 22:19:25;;;;;;;1.13;1.13;;;5.70;99.90;;;;;;5017314;28;20244;-81
2021/01/04 22:21:52;;;;;;;0.90;0.90;;;5.60;99.90;;;;;;5031239;28;20187;-81
2021/01/04 22:24:18;;;;;;;0.73;0.40;;;5.60;99.90;;;;;;5034320;28;20231;-81
2021/01/04 22:26:57;;;;;;;0.93;0.83;;;5.50;99.90;;;;;;5038051;28;20188;-82
2021/01/04 22:29:23;;;;;;;1.40;1.20;;;5.50;99.90;;;;;;5023275;28;20187;-81
2021/01/04 22:31:49;;;;;;;0.20;0.20;;;5.60;99.90;;;;;;5021012;28;20178;-82
2021/01/04 22:34:15;;;;;;;1.50;1.40;;;5.70;99.90;;;;;;5029225;28;20200;-81
2021/01/04 22:36:41;;;;;;;0.73;0.73;;;5.60;99.90;;;;;;5040212;28;20202;-82
2021/01/04 22:39:06;;;;;;;0.70;0.50;;;5.50;99.90;;;;;;5039735;28;20692;-81
2021/01/04 22:41:32;;;;;;;0.43;0.43;;;5.70;99.90;;;;;;5038878;28;20684;-81
2021/01/04 22:43:59;;;;;;;0.50;0.50;;;5.60;99.90;;;;;;5018675;28;20705;-81
2021/01/04 22:46:27;;;;;;;2.20;0.87;;;5.50;99.90;;;;;;5016790;28;20188;-82
2021/01/04 22:48:53;;;;;;;0.43;0.43;;;5.60;99.90;;;;;;5019145;28;20283;-81
2021/01/04 22:51:20;;;;;;;0.93;0.60;;;5.60;99.90;;;;;;5016593;28;20179;-80
2021/01/04 22:53:46;;;;;;;0.87;0.87;;;5.60;99.90;;;;;;5030761;28;20210;-79
2021/01/04 22:56:14;;;;;;;0.33;0.33;;;5.60;99.90;;;;;;5034200;28;20571;-79
2021/01/04 22:58:44;;;;;;;0.57;0.57;;;5.50;99.90;;;;;;5022321;28;20200;-76
2021/01/04 23:01:12;;;;;;;2.00;1.90;;;5.60;99.90;;;;;;5013734;28;20223;-77
2021/01/04 23:03:39;;;;;;;1.10;0.63;;;5.60;99.90;;;;;;5013495;28;20200;-77
2021/01/04 23:06:05;;;;;;;1.70;1.47;;;5.50;99.90;;;;;;5014916;28;20175;-77
2021/01/04 23:08:32;;;;;;;1.00;1.00;;;5.50;99.90;;;;;;5016214;28;20318;-77
2021/01/04 23:10:58;;;;;;;0.97;0.57;;;5.60;99.90;;;;;;5034391;28;20172;-76
2021/01/04 23:13:24;;;;;;;0.80;0.80;;;5.70;99.90;;;;;;5023554;28;20203;-77
2021/01/04 23:15:49;;;;;;;0.77;0.77;;;5.50;99.90;;;;;;5015610;28;20233;-77
2021/01/04 23:18:16;;;;;;;0.50;0.50;;;5.60;99.90;;;;;;5014954;28;20254;-78
2021/01/04 23:20:46;;;;;;;0.30;0.30;;;5.50;99.90;;;;;;5015274;28;20183;-78
2021/01/04 23:23:17;;;;;;;0.37;0.37;;;5.60;99.90;;;;;;5034581;28;20195;-79
2021/01/04 23:25:44;;;;;;;0.20;0.20;;;5.60;99.90;;;;;;5039986;28;20207;-82
2021/01/04 23:28:11;;;;;;;0.53;0.53;;;5.60;99.90;;;;;;5039988;28;20180;-78
2021/01/04 23:30:39;;;;;;;1.57;1.47;;;5.70;99.90;;;;;;5034814;28;20412;-79
2021/01/04 23:33:31;;;;;;;1.07;1.00;;;5.80;99.90;;;;;;5019505;28;20198;-78
2021/01/04 23:35:57;;;;;;;2.03;1.83;;;5.80;99.90;;;;;;5010672;28;20219;-77
2021/01/04 23:38:23;;;;;;;1.27;1.17;;;5.80;99.90;;;;;;5025973;28;20180;-77
2021/01/04 23:40:49;;;;;;;1.47;1.37;;;5.70;99.90;;;;;;5033072;28;20629;-77
2021/01/04 23:43:15;;;;;;;0.93;0.57;;;5.70;99.90;;;;;;5024084;28;20187;-77
2021/01/04 23:45:41;;;;;;;1.83;0.83;;;5.60;99.90;;;;;;5014202;28;20183;-77
2021/01/04 23:48:07;;;;;;;1.17;0.60;;;5.70;99.90;;;;;;5013040;28;20179;-79
2021/01/04 23:50:33;;;;;;;0.30;0.23;;;5.70;99.90;;;;;;4990820;28;20186;-77
2021/01/04 23:52:59;;;;;;;1.80;1.70;;;5.60;99.90;;;;;;4987865;28;20185;-78
2021/01/04 23:55:24;;;;;;;1.17;0.80;;;5.60;99.90;;;;;;5022892;28;20201;-78
2021/01/04 23:57:50;;;;;;;0.47;0.47;;;5.60;99.90;;;;;;5008882;28;20191;-78
